createdAt,value
2023-02-11T00:00:58.281Z,102785.47
2023-02-11T00:03:25.743Z,102769.38
2023-02-11T00:05:59.705Z,102818.34
2023-02-11T00:08:28.008Z,102810.66
2023-02-11T00:10:55.856Z,102808.84
2023-02-11T00:13:23.429Z,102786.53
2023-02-11T00:15:50.934Z,102798.41
2023-02-11T00:18:17.768Z,102745.97
2023-02-11T00:20:45.024Z,102802.63
2023-02-11T00:23:11.997Z,102798.38
2023-02-11T00:25:41.421Z,102801.88
2023-02-11T00:28:10.942Z,102783.03
2023-02-11T00:30:40.706Z,102805.31
2023-02-11T00:33:08.219Z,102795.91
2023-02-11T00:35:37.064Z,102798.50
2023-02-11T00:38:03.969Z,102796.03
2023-02-11T00:40:31.385Z,102800.38
2023-02-11T00:42:59.610Z,102783.97
2023-02-11T00:45:26.421Z,102760.06
2023-02-11T00:47:55.030Z,102764.41
2023-02-11T00:50:21.969Z,102781.66
2023-02-11T00:52:49.224Z,102736.03
2023-02-11T00:55:16.162Z,102768.59
2023-02-11T00:57:43.061Z,102741.25
2023-02-11T01:00:15.321Z,102769.59
2023-02-11T01:02:42.272Z,102767.13
2023-02-11T01:05:10.666Z,102745.69
2023-02-11T01:07:37.420Z,102780.19
2023-02-11T01:10:04.712Z,102779.44
2023-02-11T01:12:33.522Z,102773.47
2023-02-11T01:15:02.310Z,102620.50
2023-02-11T01:17:30.447Z,102768.34
2023-02-11T01:19:57.562Z,102733.16
2023-02-11T01:22:24.857Z,102732.41
2023-02-11T01:24:51.637Z,102746.16
2023-02-11T01:27:18.238Z,102770.25
2023-02-11T01:29:46.239Z,102774.63
2023-02-11T01:32:14.056Z,102749.66
2023-02-11T01:34:42.603Z,102772.06
2023-02-11T01:37:09.207Z,102754.88
2023-02-11T01:39:35.968Z,102779.03
2023-02-11T01:42:03.023Z,102754.94
2023-02-11T01:44:32.142Z,102775.59
2023-02-11T01:46:59.148Z,102761.03
2023-02-11T01:49:30.418Z,102780.00
2023-02-11T01:52:02.453Z,102767.94
2023-02-11T01:54:33.405Z,102681.16
2023-02-11T01:57:02.474Z,102764.53
2023-02-11T01:59:34.662Z,102773.22
2023-02-11T02:02:07.986Z,102763.84
2023-02-11T02:04:42.095Z,102780.25
2023-02-11T02:07:17.641Z,102783.63
2023-02-11T02:09:49.587Z,102794.91
2023-02-11T02:12:16.107Z,102792.38
2023-02-11T02:14:42.965Z,102750.22
2023-02-11T02:17:20.169Z,102753.69
2023-02-11T02:20:13.395Z,102775.06
2023-02-11T02:23:13.042Z,102776.78
2023-02-11T02:26:12.004Z,102775.03
2023-02-11T02:29:01.347Z,102762.91
2023-02-11T02:31:49.007Z,102725.88
2023-02-11T02:34:29.128Z,102771.47
2023-02-11T02:37:03.650Z,102778.34
2023-02-11T02:39:37.228Z,102729.16
2023-02-11T02:42:04.956Z,102705.19
2023-02-11T02:44:32.524Z,102680.28
2023-02-11T02:46:59.641Z,102770.53
2023-02-11T02:49:28.626Z,102774.88
2023-02-11T02:52:09.364Z,102778.28
2023-02-11T02:54:53.544Z,102726.69
2023-02-11T02:57:30.566Z,102764.47
2023-02-11T03:00:09.083Z,102717.06
2023-02-11T03:02:42.802Z,102735.06
2023-02-11T03:05:17.316Z,102735.09
2023-02-11T03:07:48.630Z,102685.25
2023-02-11T03:10:19.352Z,102720.63
2023-02-11T03:12:48.178Z,102734.38
2023-02-11T03:15:18.414Z,102679.41
2023-02-11T03:17:49.598Z,102736.19
2023-02-11T03:20:21.179Z,102737.06
2023-02-11T03:22:52.642Z,102725.91
2023-02-11T03:25:20.704Z,102720.75
2023-02-11T03:27:52.762Z,102716.50
2023-02-11T03:30:26.379Z,102650.28
2023-02-11T03:32:57.572Z,102696.84
2023-02-11T03:35:32.147Z,102709.81
2023-02-11T03:38:03.269Z,102737.41
2023-02-11T03:40:35.130Z,102733.03
2023-02-11T03:43:06.976Z,102682.19
2023-02-11T03:45:35.985Z,102677.06
2023-02-11T03:48:09.074Z,102722.66
2023-02-11T03:50:39.153Z,102721.00
2023-02-11T03:53:07.737Z,102708.00
2023-02-11T03:55:39.362Z,102706.28
2023-02-11T03:58:06.471Z,102716.59
2023-02-11T04:00:36.700Z,102722.56
2023-02-11T04:03:04.867Z,102722.56
2023-02-11T04:05:31.941Z,102732.19
2023-02-11T04:08:00.651Z,102723.59
2023-02-11T04:10:27.273Z,102733.16
2023-02-11T04:12:53.876Z,102731.47
2023-02-11T04:15:23.465Z,102735.00
2023-02-11T04:17:51.043Z,102739.25
2023-02-11T04:20:17.790Z,102738.41
2023-02-11T04:22:45.069Z,102721.00
2023-02-11T04:25:13.245Z,102686.66
2023-02-11T04:27:40.008Z,102716.75
2023-02-11T04:30:08.699Z,102710.72
2023-02-11T04:32:35.349Z,102710.81
2023-02-11T04:35:01.911Z,102671.31
2023-02-11T04:37:28.584Z,102649.88
2023-02-11T04:39:55.159Z,102693.66
2023-02-11T04:42:23.689Z,102601.69
2023-02-11T04:44:50.242Z,102702.25
2023-02-11T04:47:16.912Z,102704.78
2023-02-11T04:49:43.623Z,102693.50
2023-02-11T04:52:10.746Z,102697.75
2023-02-11T04:54:37.372Z,102693.50
2023-02-11T04:57:04.000Z,102696.84
2023-02-11T04:59:31.902Z,102671.91
2023-02-11T05:01:58.661Z,102698.56
2023-02-11T05:04:25.483Z,102615.81
2023-02-11T05:06:52.205Z,102680.22
2023-02-11T05:09:18.952Z,102659.56
2023-02-11T05:11:45.597Z,102672.44
2023-02-11T05:14:12.285Z,102672.50
2023-02-11T05:16:40.388Z,102664.75
2023-02-11T05:19:07.230Z,102695.56
2023-02-11T05:21:34.451Z,102699.00
2023-02-11T05:24:01.312Z,102697.22
2023-02-11T05:26:28.077Z,102628.38
2023-02-11T05:28:54.676Z,102692.72
2023-02-11T05:31:21.797Z,102689.28
2023-02-11T05:33:49.727Z,102649.72
2023-02-11T05:36:16.358Z,102668.81
2023-02-11T05:38:43.089Z,102646.34
2023-02-11T05:41:10.542Z,102663.44
2023-02-11T05:43:37.306Z,102690.03
2023-02-11T05:46:05.873Z,102694.25
2023-02-11T05:48:32.737Z,102692.50
2023-02-11T05:51:00.683Z,102692.44
2023-02-11T05:53:27.261Z,102688.94
2023-02-11T05:55:53.868Z,102693.25
2023-02-11T05:58:20.538Z,102676.03
2023-02-11T06:00:47.131Z,102658.75
2023-02-11T06:03:13.727Z,102685.25
2023-02-11T06:05:41.977Z,102698.19
2023-02-11T06:08:10.004Z,102671.38
2023-02-11T06:10:36.594Z,102679.00
2023-02-11T06:13:03.432Z,102689.41
2023-02-11T06:15:30.288Z,102679.06
2023-02-11T06:17:57.150Z,102671.19
2023-02-11T06:20:23.797Z,102666.84
2023-02-11T06:22:50.496Z,102666.75
2023-02-11T06:25:18.772Z,102663.28
2023-02-11T06:27:45.348Z,102633.25
2023-02-11T06:30:12.661Z,102630.66
2023-02-11T06:32:44.483Z,102662.31
2023-02-11T06:35:12.570Z,102637.44
2023-02-11T06:37:39.789Z,102639.09
2023-02-11T06:40:07.368Z,102673.34
2023-02-11T06:42:35.512Z,102673.34
2023-02-11T06:45:03.130Z,102670.78
2023-02-11T06:47:29.688Z,102681.09
2023-02-11T06:49:56.394Z,102693.31
2023-02-11T06:52:22.969Z,102663.16
2023-02-11T06:54:49.887Z,102685.28
2023-02-11T06:57:16.473Z,102686.16
2023-02-11T06:59:44.811Z,102687.00
2023-02-11T07:02:11.469Z,102691.38
2023-02-11T07:04:38.121Z,102692.22
2023-02-11T07:07:04.938Z,102699.09
2023-02-11T07:09:31.571Z,102698.19
2023-02-11T07:11:58.149Z,102707.53
2023-02-11T07:14:26.178Z,102672.31
2023-02-11T07:16:54.080Z,102710.97
2023-02-11T07:19:21.010Z,102713.59
2023-02-11T07:21:47.576Z,102699.72
2023-02-11T07:24:14.208Z,102685.94
2023-02-11T07:26:40.887Z,102569.28
2023-02-11T07:29:07.736Z,102707.50
2023-02-11T07:31:34.492Z,102721.38
2023-02-11T07:34:03.006Z,102728.28
2023-02-11T07:36:31.311Z,102720.34
2023-02-11T07:38:58.305Z,102717.72
2023-02-11T07:41:25.223Z,102703.06
2023-02-11T07:43:52.498Z,102727.13
2023-02-11T07:46:21.386Z,102700.50
2023-02-11T07:48:48.578Z,102724.41
2023-02-11T07:51:19.174Z,102728.63
2023-02-11T07:53:46.665Z,102722.38
2023-02-11T07:56:14.944Z,102730.13
2023-02-11T07:58:42.781Z,102728.31
2023-02-11T08:01:12.218Z,102741.31
2023-02-11T08:03:40.061Z,102738.72
2023-02-11T08:06:09.180Z,102712.88
2023-02-11T08:08:37.854Z,102745.53
2023-02-11T08:11:08.473Z,102729.13
2023-02-11T08:13:35.612Z,102711.13
2023-02-11T08:16:02.678Z,102732.56
2023-02-11T08:18:29.889Z,102745.41
2023-02-11T08:21:04.691Z,102740.06
2023-02-11T08:23:31.310Z,102688.47
2023-02-11T08:26:02.465Z,102746.00
2023-02-11T08:28:29.123Z,102762.38
2023-02-11T08:30:55.888Z,102758.88
2023-02-11T08:33:22.793Z,102769.28
2023-02-11T08:35:49.427Z,102764.88
2023-02-11T08:38:16.098Z,102763.94
2023-02-11T08:40:43.025Z,102759.53
2023-02-11T08:43:11.096Z,102755.22
2023-02-11T08:45:37.847Z,102756.03
2023-02-11T08:48:04.548Z,102757.03
2023-02-11T08:50:31.181Z,102761.16
2023-02-11T08:52:58.000Z,102759.38
2023-02-11T08:55:24.556Z,102768.00
2023-02-11T08:57:51.210Z,102765.28
2023-02-11T09:00:20.141Z,102727.47
2023-02-11T09:02:47.094Z,102765.97
2023-02-11T09:05:13.938Z,102775.44
2023-02-11T09:07:40.796Z,102778.84
2023-02-11T09:10:08.370Z,102761.63
2023-02-11T09:12:35.129Z,102785.59
2023-02-11T09:15:01.701Z,102789.00
2023-02-11T09:17:29.873Z,102792.34
2023-02-11T09:19:56.735Z,102781.75
2023-02-11T09:22:24.075Z,102789.50
2023-02-11T09:24:51.006Z,102793.78
2023-02-11T09:27:17.762Z,102797.22
2023-02-11T09:29:44.436Z,102795.44
2023-02-11T09:32:11.503Z,102797.06
2023-02-11T09:34:39.601Z,102798.66
2023-02-11T09:37:06.441Z,102798.59
2023-02-11T09:39:33.187Z,102802.06
2023-02-11T09:42:15.191Z,102782.25
2023-02-11T09:44:44.895Z,102802.78
2023-02-11T09:47:23.733Z,102807.06
2023-02-11T09:49:56.611Z,102758.94
2023-02-11T09:52:37.198Z,102771.00
2023-02-11T09:55:14.062Z,102815.56
2023-02-11T09:57:40.763Z,102816.34
2023-02-11T10:00:18.086Z,102814.41
2023-02-11T10:02:58.095Z,102753.44
2023-02-11T10:05:38.379Z,102816.03
2023-02-11T10:08:16.568Z,102810.72
2023-02-11T10:10:51.997Z,102784.97
2023-02-11T10:13:47.423Z,102814.91
2023-02-11T10:16:28.599Z,102815.69
2023-02-11T10:19:16.713Z,102823.41
2023-02-11T10:21:57.781Z,102829.44
2023-02-11T10:24:26.775Z,102819.75
2023-02-11T10:26:53.308Z,102814.47
2023-02-11T10:29:35.361Z,102816.97
2023-02-11T10:32:03.423Z,102807.47
2023-02-11T10:34:30.007Z,102810.84
2023-02-11T10:36:58.557Z,102810.75
2023-02-11T10:39:27.544Z,102818.53
2023-02-11T10:41:59.281Z,102811.69
2023-02-11T10:44:30.755Z,102821.88
2023-02-11T10:47:02.981Z,102829.63
2023-02-11T10:49:40.453Z,102832.13
2023-02-11T10:52:19.367Z,102834.50
2023-02-11T10:54:57.972Z,102830.88
2023-02-11T10:57:28.378Z,102832.50
2023-02-11T10:59:59.468Z,102829.72
2023-02-11T11:02:29.877Z,102832.31
2023-02-11T11:04:57.186Z,102833.06
2023-02-11T11:07:27.048Z,102823.53
2023-02-11T11:09:55.948Z,102810.50
2023-02-11T11:12:28.308Z,102814.84
2023-02-11T11:14:56.085Z,102834.53
2023-02-11T11:17:22.653Z,102829.25
2023-02-11T11:19:49.627Z,102826.56
2023-02-11T11:22:21.828Z,102823.00
2023-02-11T11:24:50.615Z,102812.41
2023-02-11T11:27:19.098Z,102784.84
2023-02-11T11:29:49.327Z,102813.22
2023-02-11T11:32:20.900Z,102803.66
2023-02-11T11:34:51.181Z,102800.16
2023-02-11T11:37:22.962Z,102801.75
2023-02-11T11:39:58.036Z,102800.81
2023-02-11T11:42:27.336Z,102804.22
2023-02-11T11:44:59.258Z,102803.28
2023-02-11T11:47:29.380Z,102800.78
2023-02-11T11:50:11.854Z,102800.50
2023-02-11T11:52:46.256Z,102797.00
2023-02-11T11:55:19.379Z,102799.44
2023-02-11T11:57:46.211Z,102730.75
2023-02-11T12:00:19.166Z,102796.59
2023-02-11T12:03:22.970Z,102798.19
2023-02-11T12:06:04.961Z,102796.41
2023-02-11T12:08:43.045Z,102790.19
2023-02-11T12:11:20.255Z,102786.75
2023-02-11T12:14:01.047Z,102765.34
2023-02-11T12:16:36.179Z,102795.50
2023-02-11T12:19:33.673Z,102803.22
2023-02-11T12:22:10.441Z,102797.94
2023-02-11T12:24:51.950Z,102790.03
2023-02-11T12:27:33.752Z,102798.69
2023-02-11T12:30:18.730Z,102800.34
2023-02-11T12:32:50.576Z,102792.38
2023-02-11T12:35:35.441Z,102800.16
2023-02-11T12:38:24.537Z,102781.38
2023-02-11T12:41:02.754Z,102806.09
2023-02-11T12:43:36.773Z,102816.47
2023-02-11T12:46:32.722Z,102806.84
2023-02-11T12:49:21.894Z,102818.13
2023-02-11T12:52:17.964Z,102816.28
2023-02-11T12:54:53.257Z,102816.28
2023-02-11T12:57:23.295Z,102811.00
2023-02-11T12:59:58.385Z,102808.31
2023-02-11T13:02:33.536Z,102809.19
2023-02-11T13:05:03.877Z,102807.38
2023-02-11T13:07:35.180Z,102802.22
2023-02-11T13:10:07.161Z,102804.72
2023-02-11T13:12:35.241Z,102795.50
2023-02-11T13:15:07.884Z,102782.41
2023-02-11T13:17:40.733Z,102786.69
2023-02-11T13:20:20.993Z,102779.25
2023-02-11T13:22:56.095Z,102773.34
2023-02-11T13:25:31.852Z,102785.28
2023-02-11T13:28:05.431Z,102786.03
2023-02-11T13:30:35.225Z,102781.56
2023-02-11T13:33:05.363Z,102778.94
2023-02-11T13:35:33.414Z,102778.22
2023-02-11T13:38:01.958Z,102790.22
2023-02-11T13:40:31.016Z,102784.81
2023-02-11T13:42:59.763Z,102784.69
2023-02-11T13:45:30.614Z,102776.13
2023-02-11T13:48:00.821Z,102782.84
2023-02-11T13:50:28.876Z,102784.59
2023-02-11T13:53:01.065Z,102785.38
2023-02-11T13:55:28.804Z,102775.84
2023-02-11T13:58:19.228Z,102778.25
2023-02-11T14:00:50.311Z,102754.91
2023-02-11T14:03:30.224Z,102777.31
2023-02-11T14:06:12.444Z,102762.28
2023-02-11T14:09:06.934Z,102753.44
2023-02-11T14:11:46.148Z,102767.31
2023-02-11T14:14:22.128Z,102707.91
2023-02-11T14:17:28.527Z,102771.41
2023-02-11T14:19:55.591Z,102767.84
2023-02-11T14:22:25.021Z,102767.78
2023-02-11T14:24:56.775Z,102770.38
2023-02-11T14:27:47.299Z,102755.84
2023-02-11T14:30:26.091Z,102778.13
2023-02-11T14:33:14.041Z,102780.66
2023-02-11T14:35:50.094Z,102785.69
2023-02-11T14:38:24.708Z,102782.88
2023-02-11T14:40:58.548Z,102768.94
2023-02-11T14:43:29.631Z,102780.09
2023-02-11T14:45:58.414Z,102791.41
2023-02-11T14:48:29.869Z,102787.75
2023-02-11T14:51:00.729Z,102785.03
2023-02-11T14:53:28.775Z,102778.75
2023-02-11T14:55:56.721Z,102775.97
2023-02-11T14:58:25.022Z,102766.31
2023-02-11T15:00:55.340Z,102751.50
2023-02-11T15:03:33.967Z,102772.94
2023-02-11T15:06:04.988Z,102771.22
2023-02-11T15:08:34.792Z,102774.75
2023-02-11T15:11:07.861Z,102782.53
2023-02-11T15:13:35.218Z,102786.94
2023-02-11T15:16:06.881Z,102786.81
2023-02-11T15:18:37.719Z,102796.41
2023-02-11T15:21:05.401Z,102798.13
2023-02-11T15:23:32.071Z,102796.31
2023-02-11T15:25:59.090Z,102804.19
2023-02-11T15:28:28.566Z,102803.19
2023-02-11T15:31:00.865Z,102802.19
2023-02-11T15:33:28.407Z,102810.13
2023-02-11T15:35:54.946Z,102811.06
2023-02-11T15:38:21.690Z,102809.94
2023-02-11T15:40:54.219Z,102811.69
2023-02-11T15:43:20.875Z,102810.06
2023-02-11T15:45:58.797Z,102819.72
2023-02-11T15:48:34.083Z,102810.16
2023-02-11T15:51:03.756Z,102822.38
2023-02-11T15:53:33.421Z,102787.94
2023-02-11T15:56:09.823Z,102810.97
2023-02-11T15:58:37.742Z,102813.66
2023-02-11T16:01:07.074Z,102815.41
2023-02-11T16:03:33.985Z,102812.75
2023-02-11T16:06:20.279Z,102824.97
2023-02-11T16:08:57.912Z,102823.25
2023-02-11T16:11:27.280Z,102819.75
2023-02-11T16:13:53.886Z,102819.75
2023-02-11T16:16:26.026Z,102822.44
2023-02-11T16:19:04.385Z,102817.31
2023-02-11T16:21:34.674Z,102822.59
2023-02-11T16:24:01.941Z,102824.38
2023-02-11T16:26:32.177Z,102827.00
2023-02-11T16:29:07.961Z,102832.28
2023-02-11T16:31:38.920Z,102841.03
2023-02-11T16:34:13.542Z,102845.47
2023-02-11T16:36:40.182Z,102841.06
2023-02-11T16:39:06.806Z,102853.34
2023-02-11T16:41:33.522Z,102865.59
2023-02-11T16:44:00.790Z,102809.94
2023-02-11T16:46:28.564Z,102863.84
2023-02-11T16:48:58.736Z,102863.78
2023-02-11T16:51:25.457Z,102853.56
2023-02-11T16:53:51.990Z,102825.69
2023-02-11T16:56:18.623Z,102882.56
2023-02-11T16:58:45.575Z,102873.91
2023-02-11T17:01:14.063Z,102867.03
2023-02-11T17:03:41.057Z,102877.56
2023-02-11T17:06:10.916Z,102871.50
2023-02-11T17:08:37.462Z,102869.81
2023-02-11T17:11:04.282Z,102873.34
2023-02-11T17:13:30.839Z,102894.38
2023-02-11T17:15:57.547Z,102885.66
2023-02-11T17:18:24.438Z,102885.69
2023-02-11T17:20:51.069Z,102878.94
2023-02-11T17:23:18.978Z,102875.56
2023-02-11T17:25:45.528Z,102872.34
2023-02-11T17:28:12.240Z,102889.50
2023-02-11T17:30:40.998Z,102891.47
2023-02-11T17:33:07.543Z,102894.88
2023-02-11T17:35:34.121Z,102891.56
2023-02-11T17:38:00.658Z,102892.38
2023-02-11T17:40:28.811Z,102883.19
2023-02-11T17:42:55.335Z,102880.53
2023-02-11T17:45:22.503Z,102905.59
2023-02-11T17:47:49.206Z,102903.91
2023-02-11T17:50:16.148Z,102913.78
2023-02-11T17:52:42.715Z,102885.28
2023-02-11T17:55:09.348Z,102902.41
2023-02-11T17:57:37.914Z,102910.09
2023-02-11T18:00:07.430Z,102914.38
2023-02-11T18:02:39.416Z,102920.63
2023-02-11T18:05:06.697Z,102911.44
2023-02-11T18:07:33.330Z,102913.16
2023-02-11T18:09:59.956Z,102787.31
2023-02-11T18:12:26.478Z,102918.50
2023-02-11T18:14:57.563Z,102890.34
2023-02-11T18:17:25.037Z,102917.03
2023-02-11T18:19:55.529Z,102906.13
2023-02-11T18:22:22.368Z,102921.59
2023-02-11T18:24:52.341Z,102909.00
2023-02-11T18:27:19.690Z,102893.41
2023-02-11T18:29:46.232Z,102918.34
2023-02-11T18:32:14.244Z,102911.31
2023-02-11T18:34:41.222Z,102914.09
2023-02-11T18:37:07.849Z,102914.91
2023-02-11T18:39:34.719Z,102917.59
2023-02-11T18:42:01.515Z,102915.94
2023-02-11T18:44:28.176Z,102902.38
2023-02-11T18:46:54.798Z,102909.22
2023-02-11T18:49:22.782Z,102920.66
2023-02-11T18:51:49.376Z,102925.16
2023-02-11T18:54:16.362Z,102921.06
2023-02-11T18:56:43.146Z,102908.22
2023-02-11T18:59:09.682Z,102880.09
2023-02-11T19:01:36.708Z,102933.56
2023-02-11T19:04:04.907Z,102935.56
2023-02-11T19:06:34.648Z,102939.22
2023-02-11T19:09:04.351Z,102878.41
2023-02-11T19:11:32.225Z,102936.16
2023-02-11T19:13:58.973Z,102937.19
2023-02-11T19:16:25.835Z,102937.34
2023-02-11T19:18:52.369Z,102936.53
2023-02-11T19:21:20.126Z,102935.66
2023-02-11T19:23:47.990Z,102903.16
2023-02-11T19:26:14.496Z,102942.03
2023-02-11T19:28:41.018Z,102943.84
2023-02-11T19:31:08.828Z,102940.47
2023-02-11T19:33:36.269Z,102942.22
2023-02-11T19:36:04.796Z,102947.44
2023-02-11T19:38:31.427Z,102949.22
2023-02-11T19:40:59.657Z,102956.06
2023-02-11T19:43:26.190Z,102944.66
2023-02-11T19:45:53.727Z,102951.59
2023-02-11T19:48:24.816Z,102957.00
2023-02-11T19:50:51.462Z,102960.34
2023-02-11T19:53:18.035Z,102958.66
2023-02-11T19:55:44.584Z,102960.47
2023-02-11T19:58:12.897Z,102956.84
2023-02-11T20:00:39.730Z,102962.81
2023-02-11T20:03:06.603Z,102962.94
2023-02-11T20:05:33.633Z,102961.97
2023-02-11T20:08:00.223Z,102933.63
2023-02-11T20:10:26.837Z,102967.06
2023-02-11T20:12:53.464Z,102962.78
2023-02-11T20:15:21.369Z,102965.31
2023-02-11T20:17:47.896Z,102969.75
2023-02-11T20:20:14.866Z,102966.28
2023-02-11T20:22:43.245Z,102968.78
2023-02-11T20:25:09.787Z,102972.25
2023-02-11T20:27:36.339Z,102979.06
2023-02-11T20:30:03.448Z,102982.53
2023-02-11T20:32:35.395Z,102981.53
2023-02-11T20:35:03.940Z,102955.84
2023-02-11T20:37:30.775Z,102977.28
2023-02-11T20:39:57.387Z,102991.94
2023-02-11T20:42:23.923Z,102991.94
2023-02-11T20:44:50.651Z,102985.72
2023-02-11T20:47:17.452Z,102971.13
2023-02-11T20:49:45.499Z,102987.44
2023-02-11T20:52:12.256Z,102993.53
2023-02-11T20:54:38.848Z,102998.81
2023-02-11T20:57:05.407Z,103003.16
2023-02-11T20:59:32.216Z,102981.59
2023-02-11T21:01:58.802Z,103004.03
2023-02-11T21:04:27.776Z,102980.00
2023-02-11T21:06:57.451Z,103000.53
2023-02-11T21:09:26.052Z,102997.81
2023-02-11T21:11:53.779Z,102997.81
2023-02-11T21:14:22.716Z,103003.75
2023-02-11T21:16:49.527Z,103002.88
2023-02-11T21:19:16.933Z,102997.66
2023-02-11T21:21:43.570Z,103006.41
2023-02-11T21:24:12.015Z,102994.59
2023-02-11T21:26:38.839Z,103016.97
2023-02-11T21:29:07.931Z,103010.78
2023-02-11T21:31:35.772Z,103017.66
2023-02-11T21:34:02.708Z,103003.06
2023-02-11T21:36:29.913Z,103009.78
2023-02-11T21:38:56.906Z,103009.78
2023-02-11T21:41:25.042Z,102990.81
2023-02-11T21:43:52.181Z,102930.66
2023-02-11T21:46:20.031Z,103008.78
2023-02-11T21:48:47.039Z,103007.97
2023-02-11T21:51:17.209Z,103005.47
2023-02-11T21:53:43.990Z,102957.53
2023-02-11T21:56:13.562Z,103017.72
2023-02-11T21:58:41.989Z,103013.34
2023-02-11T22:01:13.421Z,102981.50
2023-02-11T22:03:40.196Z,102954.97
2023-02-11T22:06:08.417Z,103004.75
2023-02-11T22:08:35.372Z,103009.19
2023-02-11T22:11:03.502Z,103010.09
2023-02-11T22:13:30.335Z,103015.34
2023-02-11T22:15:59.707Z,103019.63
2023-02-11T22:18:26.681Z,102993.03
2023-02-11T22:21:00.535Z,103022.25
2023-02-11T22:23:27.452Z,103025.72
2023-02-11T22:25:54.487Z,103017.13
2023-02-11T22:28:21.472Z,103004.97
2023-02-11T22:30:52.709Z,102996.41
2023-02-11T22:33:21.072Z,103023.06
2023-02-11T22:35:47.702Z,103026.47
2023-02-11T22:38:14.308Z,103031.69
2023-02-11T22:40:42.026Z,103031.72
2023-02-11T22:43:08.916Z,103039.59
2023-02-11T22:45:35.936Z,103041.38
2023-02-11T22:48:02.808Z,103010.41
2023-02-11T22:50:30.908Z,103038.78
2023-02-11T22:52:57.619Z,103024.41
2023-02-11T22:55:24.436Z,103044.03
2023-02-11T22:57:51.062Z,103044.09
2023-02-11T23:00:18.139Z,103044.00
2023-02-11T23:02:44.822Z,103047.50
2023-02-11T23:05:11.462Z,103047.53
2023-02-11T23:07:39.453Z,103050.84
2023-02-11T23:10:07.233Z,103049.09
2023-02-11T23:12:33.889Z,103055.03
2023-02-11T23:15:02.122Z,103056.81
2023-02-11T23:17:30.751Z,103054.25
2023-02-11T23:19:57.352Z,103038.63
2023-02-11T23:22:23.991Z,103041.59
2023-02-11T23:24:51.873Z,103056.25
2023-02-11T23:27:18.477Z,103058.94
2023-02-11T23:29:45.361Z,103056.22
2023-02-11T23:32:12.051Z,103057.88
2023-02-11T23:34:38.695Z,103052.00
2023-02-11T23:37:05.659Z,103065.72
2023-02-11T23:39:32.496Z,103057.91
2023-02-11T23:42:00.491Z,103061.38
2023-02-11T23:44:27.624Z,103063.91
2023-02-11T23:46:54.276Z,103061.34
2023-02-11T23:49:21.081Z,103059.72
2023-02-11T23:51:47.859Z,103053.63
2023-02-11T23:54:14.970Z,103055.44
2023-02-11T23:56:41.631Z,103055.44
2023-02-11T23:59:09.513Z,103051.06
